sensor_id;sensor_type;location;lat;lon;timestamp;P1;durP1;ratioP1;P2;durP2;ratioP2
58302;SDS011;44109;52.398;7.024;2024-01-30T00:00:00;18.42;;;13.20;;
58302;SDS011;44109;52.398;7.024;2024-01-30T00:02:31;14.40;;;10.57;;
58302;SDS011;44109;52.398;7.024;2024-01-30T00:04:59;20.55;;;14.68;;
58302;SDS011;44109;52.398;7.024;2024-01-30T00:07:27;17.63;;;13.63;;
58302;SDS011;44109;52.398;7.024;2024-01-30T00:09:54;17.75;;;11.82;;
58302;SDS011;44109;52.398;7.024;2024-01-30T00:12:22;19.48;;;12.75;;
58302;SDS011;44109;52.398;7.024;2024-01-30T00:14:49;16.25;;;12.05;;
58302;SDS011;44109;52.398;7.024;2024-01-30T00:17:17;16.67;;;12.43;;
58302;SDS011;44109;52.398;7.024;2024-01-30T00:19:47;18.70;;;12.95;;
58302;SDS011;44109;52.398;7.024;2024-01-30T00:22:15;17.70;;;13.48;;
58302;SDS011;44109;52.398;7.024;2024-01-30T00:24:42;14.50;;;11.27;;
58302;SDS011;44109;52.398;7.024;2024-01-30T00:27:10;20.80;;;13.95;;
58302;SDS011;44109;52.398;7.024;2024-01-30T00:29:38;16.77;;;12.38;;
58302;SDS011;44109;52.398;7.024;2024-01-30T00:32:05;16.15;;;11.57;;
58302;SDS011;44109;52.398;7.024;2024-01-30T00:34:33;16.83;;;13.27;;
58302;SDS011;44109;52.398;7.024;2024-01-30T00:37:02;16.40;;;12.10;;
58302;SDS011;44109;52.398;7.024;2024-01-30T00:39:30;19.00;;;12.70;;
58302;SDS011;44109;52.398;7.024;2024-01-30T00:41:58;16.65;;;12.60;;
58302;SDS011;44109;52.398;7.024;2024-01-30T00:44:25;15.85;;;11.38;;
58302;SDS011;44109;52.398;7.024;2024-01-30T00:46:53;13.93;;;10.93;;
58302;SDS011;44109;52.398;7.024;2024-01-30T00:49:21;15.07;;;11.40;;
58302;SDS011;44109;52.398;7.024;2024-01-30T00:51:48;14.32;;;11.45;;
58302;SDS011;44109;52.398;7.024;2024-01-30T00:54:17;16.30;;;11.57;;
58302;SDS011;44109;52.398;7.024;2024-01-30T00:56:45;12.88;;;10.50;;
58302;SDS011;44109;52.398;7.024;2024-01-30T00:59:12;17.65;;;12.15;;
58302;SDS011;44109;52.398;7.024;2024-01-30T01:01:40;14.55;;;11.15;;
58302;SDS011;44109;52.398;7.024;2024-01-30T01:04:08;16.33;;;11.77;;
58302;SDS011;44109;52.398;7.024;2024-01-30T01:06:35;17.05;;;12.07;;
58302;SDS011;44109;52.398;7.024;2024-01-30T01:09:03;20.30;;;13.48;;
58302;SDS011;44109;52.398;7.024;2024-01-30T01:11:32;17.20;;;12.52;;
58302;SDS011;44109;52.398;7.024;2024-01-30T01:13:59;15.27;;;11.35;;
58302;SDS011;44109;52.398;7.024;2024-01-30T01:16:27;15.90;;;11.45;;
58302;SDS011;44109;52.398;7.024;2024-01-30T01:18:55;17.75;;;13.40;;
58302;SDS011;44109;52.398;7.024;2024-01-30T01:21:22;17.35;;;12.55;;
58302;SDS011;44109;52.398;7.024;2024-01-30T01:23:50;18.65;;;13.30;;
58302;SDS011;44109;52.398;7.024;2024-01-30T01:26:18;16.10;;;12.10;;
58302;SDS011;44109;52.398;7.024;2024-01-30T01:28:46;17.25;;;12.75;;
58302;SDS011;44109;52.398;7.024;2024-01-30T01:31:14;16.80;;;11.88;;
58302;SDS011;44109;52.398;7.024;2024-01-30T01:33:43;15.30;;;11.48;;
58302;SDS011;44109;52.398;7.024;2024-01-30T01:36:11;18.58;;;13.57;;
58302;SDS011;44109;52.398;7.024;2024-01-30T01:38:40;18.75;;;12.95;;
58302;SDS011;44109;52.398;7.024;2024-01-30T01:41:08;16.65;;;12.13;;
58302;SDS011;44109;52.398;7.024;2024-01-30T01:43:35;17.83;;;13.35;;
58302;SDS011;44109;52.398;7.024;2024-01-30T01:46:05;14.48;;;11.45;;
58302;SDS011;44109;52.398;7.024;2024-01-30T01:48:34;16.27;;;11.68;;
58302;SDS011;44109;52.398;7.024;2024-01-30T01:51:01;17.48;;;11.93;;
58302;SDS011;44109;52.398;7.024;2024-01-30T01:53:30;16.60;;;11.95;;
58302;SDS011;44109;52.398;7.024;2024-01-30T01:55:59;17.38;;;13.50;;
58302;SDS011;44109;52.398;7.024;2024-01-30T01:58:27;15.48;;;11.35;;
58302;SDS011;44109;52.398;7.024;2024-01-30T02:00:56;17.45;;;12.32;;
58302;SDS011;44109;52.398;7.024;2024-01-30T02:03:27;18.00;;;12.27;;
58302;SDS011;44109;52.398;7.024;2024-01-30T02:05:55;16.95;;;11.77;;
58302;SDS011;44109;52.398;7.024;2024-01-30T02:08:24;13.43;;;11.02;;
58302;SDS011;44109;52.398;7.024;2024-01-30T02:10:51;14.52;;;10.80;;
58302;SDS011;44109;52.398;7.024;2024-01-30T02:13:20;22.50;;;15.90;;
58302;SDS011;44109;52.398;7.024;2024-01-30T02:15:49;18.63;;;13.95;;
58302;SDS011;44109;52.398;7.024;2024-01-30T02:18:18;13.95;;;10.30;;
58302;SDS011;44109;52.398;7.024;2024-01-30T02:20:48;17.70;;;12.77;;
58302;SDS011;44109;52.398;7.024;2024-01-30T02:23:21;14.35;;;10.45;;
58302;SDS011;44109;52.398;7.024;2024-01-30T02:25:51;20.15;;;14.43;;
58302;SDS011;44109;52.398;7.024;2024-01-30T02:28:19;18.13;;;13.23;;
58302;SDS011;44109;52.398;7.024;2024-01-30T02:30:47;19.92;;;13.02;;
58302;SDS011;44109;52.398;7.024;2024-01-30T02:33:14;17.00;;;12.50;;
58302;SDS011;44109;52.398;7.024;2024-01-30T02:35:42;16.73;;;13.43;;
58302;SDS011;44109;52.398;7.024;2024-01-30T02:38:10;16.52;;;11.80;;
58302;SDS011;44109;52.398;7.024;2024-01-30T02:40:39;13.45;;;10.90;;
58302;SDS011;44109;52.398;7.024;2024-01-30T02:43:07;15.02;;;10.65;;
58302;SDS011;44109;52.398;7.024;2024-01-30T02:45:34;17.13;;;12.73;;
58302;SDS011;44109;52.398;7.024;2024-01-30T02:48:02;18.80;;;13.65;;
58302;SDS011;44109;52.398;7.024;2024-01-30T02:50:31;16.95;;;11.65;;
58302;SDS011;44109;52.398;7.024;2024-01-30T02:52:58;15.70;;;10.77;;
58302;SDS011;44109;52.398;7.024;2024-01-30T02:55:26;14.73;;;10.63;;
58302;SDS011;44109;52.398;7.024;2024-01-30T02:57:55;14.60;;;11.13;;
58302;SDS011;44109;52.398;7.024;2024-01-30T03:00:23;16.23;;;11.80;;
58302;SDS011;44109;52.398;7.024;2024-01-30T03:02:51;16.60;;;11.10;;
58302;SDS011;44109;52.398;7.024;2024-01-30T03:05:19;13.95;;;10.98;;
58302;SDS011;44109;52.398;7.024;2024-01-30T03:07:46;19.42;;;14.52;;
58302;SDS011;44109;52.398;7.024;2024-01-30T03:10:14;15.52;;;11.43;;
58302;SDS011;44109;52.398;7.024;2024-01-30T03:12:42;20.20;;;14.80;;
58302;SDS011;44109;52.398;7.024;2024-01-30T03:15:11;17.15;;;14.10;;
58302;SDS011;44109;52.398;7.024;2024-01-30T03:17:38;17.50;;;12.68;;
58302;SDS011;44109;52.398;7.024;2024-01-30T03:20:06;21.65;;;13.48;;
58302;SDS011;44109;52.398;7.024;2024-01-30T03:22:36;18.15;;;11.77;;
58302;SDS011;44109;52.398;7.024;2024-01-30T03:25:04;17.05;;;12.30;;
58302;SDS011;44109;52.398;7.024;2024-01-30T03:27:32;17.70;;;11.07;;
58302;SDS011;44109;52.398;7.024;2024-01-30T03:29:59;18.95;;;13.88;;
58302;SDS011;44109;52.398;7.024;2024-01-30T03:32:29;16.42;;;12.23;;
58302;SDS011;44109;52.398;7.024;2024-01-30T03:34:56;17.00;;;11.00;;
58302;SDS011;44109;52.398;7.024;2024-01-30T03:37:25;18.98;;;12.13;;
58302;SDS011;44109;52.398;7.024;2024-01-30T03:39:52;15.70;;;11.38;;
58302;SDS011;44109;52.398;7.024;2024-01-30T03:42:20;16.30;;;11.00;;
58302;SDS011;44109;52.398;7.024;2024-01-30T03:44:48;17.02;;;11.60;;
58302;SDS011;44109;52.398;7.024;2024-01-30T03:47:17;17.25;;;13.45;;
58302;SDS011;44109;52.398;7.024;2024-01-30T03:49:46;15.77;;;11.43;;
58302;SDS011;44109;52.398;7.024;2024-01-30T03:52:14;14.75;;;10.25;;
58302;SDS011;44109;52.398;7.024;2024-01-30T03:54:42;14.77;;;10.00;;
58302;SDS011;44109;52.398;7.024;2024-01-30T03:57:09;17.58;;;12.15;;
58302;SDS011;44109;52.398;7.024;2024-01-30T03:59:38;16.60;;;11.25;;
58302;SDS011;44109;52.398;7.024;2024-01-30T04:02:09;15.93;;;11.43;;
58302;SDS011;44109;52.398;7.024;2024-01-30T04:04:37;16.20;;;10.60;;
58302;SDS011;44109;52.398;7.024;2024-01-30T04:07:06;17.52;;;12.10;;
58302;SDS011;44109;52.398;7.024;2024-01-30T04:09:33;18.83;;;12.48;;
58302;SDS011;44109;52.398;7.024;2024-01-30T04:12:01;17.92;;;11.73;;
58302;SDS011;44109;52.398;7.024;2024-01-30T04:14:29;21.30;;;13.13;;
58302;SDS011;44109;52.398;7.024;2024-01-30T04:16:57;14.27;;;11.05;;
58302;SDS011;44109;52.398;7.024;2024-01-30T04:19:24;16.25;;;11.20;;
58302;SDS011;44109;52.398;7.024;2024-01-30T04:21:52;14.52;;;11.88;;
58302;SDS011;44109;52.398;7.024;2024-01-30T04:24:21;16.40;;;12.00;;
58302;SDS011;44109;52.398;7.024;2024-01-30T04:26:49;18.10;;;13.45;;
58302;SDS011;44109;52.398;7.024;2024-01-30T04:29:16;14.73;;;11.32;;
58302;SDS011;44109;52.398;7.024;2024-01-30T04:31:45;14.82;;;10.45;;
58302;SDS011;44109;52.398;7.024;2024-01-30T04:34:13;17.20;;;12.23;;
58302;SDS011;44109;52.398;7.024;2024-01-30T04:36:43;16.73;;;11.73;;
58302;SDS011;44109;52.398;7.024;2024-01-30T04:39:11;15.20;;;11.00;;
58302;SDS011;44109;52.398;7.024;2024-01-30T04:41:41;18.90;;;11.88;;
58302;SDS011;44109;52.398;7.024;2024-01-30T04:44:08;16.45;;;11.82;;
58302;SDS011;44109;52.398;7.024;2024-01-30T04:46:36;16.10;;;12.00;;
58302;SDS011;44109;52.398;7.024;2024-01-30T04:49:03;19.05;;;13.95;;
58302;SDS011;44109;52.398;7.024;2024-01-30T04:51:33;14.75;;;10.50;;
58302;SDS011;44109;52.398;7.024;2024-01-30T04:54:01;16.50;;;11.95;;
58302;SDS011;44109;52.398;7.024;2024-01-30T04:56:28;15.52;;;11.77;;
58302;SDS011;44109;52.398;7.024;2024-01-30T04:58:58;17.92;;;12.52;;
58302;SDS011;44109;52.398;7.024;2024-01-30T05:01:26;15.85;;;11.45;;
58302;SDS011;44109;52.398;7.024;2024-01-30T05:03:53;14.25;;;11.73;;
58302;SDS011;44109;52.398;7.024;2024-01-30T05:06:24;14.80;;;10.73;;
58302;SDS011;44109;52.398;7.024;2024-01-30T05:08:52;16.83;;;11.73;;
58302;SDS011;44109;52.398;7.024;2024-01-30T05:11:20;17.85;;;13.00;;
58302;SDS011;44109;52.398;7.024;2024-01-30T05:13:47;16.13;;;12.00;;
58302;SDS011;44109;52.398;7.024;2024-01-30T05:16:16;16.77;;;12.10;;
58302;SDS011;44109;52.398;7.024;2024-01-30T05:18:44;18.13;;;13.27;;
58302;SDS011;44109;52.398;7.024;2024-01-30T05:21:12;16.60;;;11.82;;
58302;SDS011;44109;52.398;7.024;2024-01-30T05:23:40;14.32;;;11.15;;
58302;SDS011;44109;52.398;7.024;2024-01-30T05:26:07;16.33;;;12.45;;
58302;SDS011;44109;52.398;7.024;2024-01-30T05:28:35;18.80;;;11.75;;
58302;SDS011;44109;52.398;7.024;2024-01-30T05:31:03;18.17;;;13.68;;
58302;SDS011;44109;52.398;7.024;2024-01-30T05:33:32;16.63;;;11.88;;
58302;SDS011;44109;52.398;7.024;2024-01-30T05:36:00;20.73;;;12.70;;
58302;SDS011;44109;52.398;7.024;2024-01-30T05:38:28;16.13;;;12.18;;
58302;SDS011;44109;52.398;7.024;2024-01-30T05:40:56;17.85;;;11.35;;
58302;SDS011;44109;52.398;7.024;2024-01-30T05:43:24;21.90;;;15.18;;
58302;SDS011;44109;52.398;7.024;2024-01-30T05:45:52;21.20;;;13.90;;
58302;SDS011;44109;52.398;7.024;2024-01-30T05:48:19;19.95;;;13.30;;
58302;SDS011;44109;52.398;7.024;2024-01-30T05:50:48;20.17;;;14.57;;
58302;SDS011;44109;52.398;7.024;2024-01-30T05:53:16;22.33;;;16.38;;
58302;SDS011;44109;52.398;7.024;2024-01-30T05:55:44;18.80;;;13.45;;
58302;SDS011;44109;52.398;7.024;2024-01-30T05:58:14;21.52;;;15.68;;
58302;SDS011;44109;52.398;7.024;2024-01-30T06:00:41;20.40;;;14.98;;
58302;SDS011;44109;52.398;7.024;2024-01-30T06:03:09;16.23;;;11.75;;
58302;SDS011;44109;52.398;7.024;2024-01-30T06:05:36;18.05;;;13.98;;
58302;SDS011;44109;52.398;7.024;2024-01-30T06:08:06;16.65;;;11.90;;
58302;SDS011;44109;52.398;7.024;2024-01-30T06:10:34;16.40;;;12.23;;
58302;SDS011;44109;52.398;7.024;2024-01-30T06:13:01;16.42;;;12.05;;
58302;SDS011;44109;52.398;7.024;2024-01-30T06:15:29;18.73;;;13.70;;
58302;SDS011;44109;52.398;7.024;2024-01-30T06:17:58;24.23;;;17.58;;
58302;SDS011;44109;52.398;7.024;2024-01-30T06:20:26;19.83;;;12.93;;
58302;SDS011;44109;52.398;7.024;2024-01-30T06:22:54;19.33;;;13.38;;
58302;SDS011;44109;52.398;7.024;2024-01-30T06:25:23;18.70;;;13.13;;
58302;SDS011;44109;52.398;7.024;2024-01-30T06:27:51;16.27;;;12.65;;
58302;SDS011;44109;52.398;7.024;2024-01-30T06:30:18;18.45;;;13.10;;
58302;SDS011;44109;52.398;7.024;2024-01-30T06:32:46;16.95;;;12.50;;
58302;SDS011;44109;52.398;7.024;2024-01-30T06:35:14;23.33;;;16.50;;
58302;SDS011;44109;52.398;7.024;2024-01-30T06:37:43;17.08;;;12.18;;
58302;SDS011;44109;52.398;7.024;2024-01-30T06:40:11;17.30;;;13.20;;
58302;SDS011;44109;52.398;7.024;2024-01-30T06:42:40;15.07;;;12.18;;
58302;SDS011;44109;52.398;7.024;2024-01-30T06:45:08;21.40;;;12.90;;
58302;SDS011;44109;52.398;7.024;2024-01-30T06:47:36;15.63;;;11.38;;
58302;SDS011;44109;52.398;7.024;2024-01-30T06:50:04;14.77;;;12.27;;
58302;SDS011;44109;52.398;7.024;2024-01-30T06:52:33;18.40;;;11.15;;
58302;SDS011;44109;52.398;7.024;2024-01-30T06:55:01;14.98;;;11.68;;
58302;SDS011;44109;52.398;7.024;2024-01-30T06:57:29;16.90;;;12.55;;
58302;SDS011;44109;52.398;7.024;2024-01-30T06:59:58;15.13;;;11.63;;
58302;SDS011;44109;52.398;7.024;2024-01-30T07:02:25;16.05;;;12.35;;
58302;SDS011;44109;52.398;7.024;2024-01-30T07:04:53;21.13;;;12.63;;
58302;SDS011;44109;52.398;7.024;2024-01-30T07:07:21;15.88;;;12.40;;
58302;SDS011;44109;52.398;7.024;2024-01-30T07:09:48;15.60;;;11.63;;
58302;SDS011;44109;52.398;7.024;2024-01-30T07:12:21;16.40;;;12.48;;
58302;SDS011;44109;52.398;7.024;2024-01-30T07:14:51;16.63;;;11.27;;
58302;SDS011;44109;52.398;7.024;2024-01-30T07:17:20;17.20;;;12.55;;
58302;SDS011;44109;52.398;7.024;2024-01-30T07:19:48;13.38;;;9.23;;
58302;SDS011;44109;52.398;7.024;2024-01-30T07:22:15;13.55;;;10.05;;
58302;SDS011;44109;52.398;7.024;2024-01-30T07:24:43;20.55;;;14.13;;
58302;SDS011;44109;52.398;7.024;2024-01-30T07:27:13;18.40;;;12.27;;
58302;SDS011;44109;52.398;7.024;2024-01-30T07:29:43;15.07;;;10.40;;
58302;SDS011;44109;52.398;7.024;2024-01-30T07:32:10;13.40;;;10.15;;
58302;SDS011;44109;52.398;7.024;2024-01-30T07:34:39;12.43;;;8.98;;
58302;SDS011;44109;52.398;7.024;2024-01-30T07:37:07;14.52;;;11.02;;
58302;SDS011;44109;52.398;7.024;2024-01-30T07:39:35;14.00;;;10.52;;
58302;SDS011;44109;52.398;7.024;2024-01-30T07:42:03;21.17;;;14.30;;
58302;SDS011;44109;52.398;7.024;2024-01-30T07:44:31;15.65;;;11.25;;
58302;SDS011;44109;52.398;7.024;2024-01-30T07:46:58;16.73;;;11.55;;
58302;SDS011;44109;52.398;7.024;2024-01-30T07:49:26;18.65;;;11.73;;
58302;SDS011;44109;52.398;7.024;2024-01-30T07:51:55;16.30;;;11.88;;
58302;SDS011;44109;52.398;7.024;2024-01-30T07:54:23;12.13;;;9.10;;
58302;SDS011;44109;52.398;7.024;2024-01-30T07:56:50;18.17;;;10.57;;
58302;SDS011;44109;52.398;7.024;2024-01-30T07:59:18;16.40;;;11.65;;
58302;SDS011;44109;52.398;7.024;2024-01-30T08:01:48;16.63;;;11.85;;
58302;SDS011;44109;52.398;7.024;2024-01-30T08:04:29;14.52;;;11.20;;
58302;SDS011;44109;52.398;7.024;2024-01-30T08:06:58;15.63;;;10.07;;
58302;SDS011;44109;52.398;7.024;2024-01-30T08:09:26;15.55;;;12.95;;
58302;SDS011;44109;52.398;7.024;2024-01-30T08:11:53;13.35;;;10.07;;
58302;SDS011;44109;52.398;7.024;2024-01-30T08:14:21;19.25;;;13.07;;
58302;SDS011;44109;52.398;7.024;2024-01-30T08:16:49;16.13;;;11.73;;
58302;SDS011;44109;52.398;7.024;2024-01-30T08:19:16;16.73;;;11.23;;
58302;SDS011;44109;52.398;7.024;2024-01-30T08:21:44;19.15;;;14.50;;
58302;SDS011;44109;52.398;7.024;2024-01-30T08:24:13;12.52;;;10.35;;
58302;SDS011;44109;52.398;7.024;2024-01-30T08:26:41;11.90;;;9.15;;
58302;SDS011;44109;52.398;7.024;2024-01-30T08:29:09;17.27;;;11.15;;
58302;SDS011;44109;52.398;7.024;2024-01-30T08:31:36;14.30;;;10.07;;
58302;SDS011;44109;52.398;7.024;2024-01-30T08:34:04;16.88;;;10.98;;
58302;SDS011;44109;52.398;7.024;2024-01-30T08:36:32;13.68;;;10.48;;
58302;SDS011;44109;52.398;7.024;2024-01-30T08:39:00;16.60;;;12.18;;
58302;SDS011;44109;52.398;7.024;2024-01-30T08:41:30;15.55;;;10.32;;
58302;SDS011;44109;52.398;7.024;2024-01-30T08:43:57;16.50;;;12.65;;
58302;SDS011;44109;52.398;7.024;2024-01-30T08:46:25;15.82;;;11.00;;
58302;SDS011;44109;52.398;7.024;2024-01-30T08:48:53;14.35;;;11.35;;
58302;SDS011;44109;52.398;7.024;2024-01-30T08:51:20;18.55;;;12.05;;
58302;SDS011;44109;52.398;7.024;2024-01-30T08:53:48;16.45;;;9.35;;
58302;SDS011;44109;52.398;7.024;2024-01-30T08:56:15;15.32;;;9.38;;
58302;SDS011;44109;52.398;7.024;2024-01-30T08:58:44;14.23;;;10.02;;
58302;SDS011;44109;52.398;7.024;2024-01-30T09:01:12;13.15;;;10.73;;
58302;SDS011;44109;52.398;7.024;2024-01-30T09:03:40;14.10;;;10.50;;
58302;SDS011;44109;52.398;7.024;2024-01-30T09:06:09;11.48;;;9.57;;
58302;SDS011;44109;52.398;7.024;2024-01-30T09:08:37;19.13;;;10.82;;
58302;SDS011;44109;52.398;7.024;2024-01-30T09:11:08;12.75;;;9.52;;
58302;SDS011;44109;52.398;7.024;2024-01-30T09:13:36;13.48;;;10.55;;
58302;SDS011;44109;52.398;7.024;2024-01-30T09:16:06;17.15;;;11.32;;
58302;SDS011;44109;52.398;7.024;2024-01-30T09:18:34;14.50;;;10.15;;
58302;SDS011;44109;52.398;7.024;2024-01-30T09:21:02;12.52;;;9.82;;
58302;SDS011;44109;52.398;7.024;2024-01-30T09:23:30;15.95;;;10.23;;
58302;SDS011;44109;52.398;7.024;2024-01-30T09:25:57;13.60;;;9.18;;
58302;SDS011;44109;52.398;7.024;2024-01-30T09:28:25;12.60;;;9.25;;
58302;SDS011;44109;52.398;7.024;2024-01-30T09:30:53;13.70;;;10.43;;
58302;SDS011;44109;52.398;7.024;2024-01-30T09:33:21;13.10;;;9.43;;
58302;SDS011;44109;52.398;7.024;2024-01-30T09:35:49;13.77;;;9.88;;
58302;SDS011;44109;52.398;7.024;2024-01-30T09:38:17;13.00;;;10.30;;
58302;SDS011;44109;52.398;7.024;2024-01-30T09:40:44;12.40;;;9.82;;
58302;SDS011;44109;52.398;7.024;2024-01-30T09:43:21;12.73;;;9.07;;
58302;SDS011;44109;52.398;7.024;2024-01-30T09:45:50;13.95;;;8.70;;
58302;SDS011;44109;52.398;7.024;2024-01-30T09:48:22;12.85;;;9.05;;
58302;SDS011;44109;52.398;7.024;2024-01-30T09:50:51;13.32;;;10.32;;
58302;SDS011;44109;52.398;7.024;2024-01-30T09:53:20;11.80;;;9.73;;
58302;SDS011;44109;52.398;7.024;2024-01-30T09:55:49;13.25;;;9.88;;
58302;SDS011;44109;52.398;7.024;2024-01-30T09:58:17;15.48;;;10.43;;
58302;SDS011;44109;52.398;7.024;2024-01-30T10:00:45;18.25;;;10.65;;
58302;SDS011;44109;52.398;7.024;2024-01-30T10:03:13;13.77;;;10.25;;
58302;SDS011;44109;52.398;7.024;2024-01-30T10:05:42;16.42;;;10.63;;
58302;SDS011;44109;52.398;7.024;2024-01-30T10:08:19;14.07;;;10.05;;
58302;SDS011;44109;52.398;7.024;2024-01-30T10:10:46;13.32;;;9.63;;
58302;SDS011;44109;52.398;7.024;2024-01-30T10:13:15;15.40;;;10.25;;
58302;SDS011;44109;52.398;7.024;2024-01-30T10:15:43;11.70;;;9.65;;
58302;SDS011;44109;52.398;7.024;2024-01-30T10:18:11;13.50;;;9.48;;
58302;SDS011;44109;52.398;7.024;2024-01-30T10:20:39;12.60;;;9.23;;
58302;SDS011;44109;52.398;7.024;2024-01-30T10:23:08;16.25;;;9.75;;
58302;SDS011;44109;52.398;7.024;2024-01-30T10:25:36;13.75;;;9.50;;
58302;SDS011;44109;52.398;7.024;2024-01-30T10:28:04;11.18;;;8.55;;
58302;SDS011;44109;52.398;7.024;2024-01-30T10:30:33;13.70;;;10.05;;
58302;SDS011;44109;52.398;7.024;2024-01-30T10:33:00;11.40;;;8.70;;
58302;SDS011;44109;52.398;7.024;2024-01-30T10:35:28;12.82;;;9.48;;
58302;SDS011;44109;52.398;7.024;2024-01-30T10:37:56;12.80;;;9.73;;
58302;SDS011;44109;52.398;7.024;2024-01-30T10:40:27;14.98;;;10.10;;
58302;SDS011;44109;52.398;7.024;2024-01-30T10:42:56;14.27;;;9.52;;
58302;SDS011;44109;52.398;7.024;2024-01-30T10:45:23;16.60;;;10.02;;
58302;SDS011;44109;52.398;7.024;2024-01-30T10:50:26;13.88;;;9.43;;
58302;SDS011;44109;52.398;7.024;2024-01-30T10:52:55;13.50;;;9.35;;
58302;SDS011;44109;52.398;7.024;2024-01-30T10:55:27;14.20;;;9.48;;
58302;SDS011;44109;52.398;7.024;2024-01-30T10:57:57;14.35;;;10.45;;
58302;SDS011;44109;52.398;7.024;2024-01-30T11:00:25;17.90;;;10.85;;
58302;SDS011;44109;52.398;7.024;2024-01-30T11:02:54;15.50;;;10.57;;
58302;SDS011;44109;52.398;7.024;2024-01-30T11:05:25;16.98;;;9.73;;
58302;SDS011;44109;52.398;7.024;2024-01-30T11:07:54;14.20;;;9.73;;
58302;SDS011;44109;52.398;7.024;2024-01-30T11:10:24;11.40;;;9.20;;
58302;SDS011;44109;52.398;7.024;2024-01-30T11:12:53;14.85;;;9.75;;
58302;SDS011;44109;52.398;7.024;2024-01-30T11:15:21;11.77;;;9.10;;
58302;SDS011;44109;52.398;7.024;2024-01-30T11:17:52;11.70;;;9.18;;
58302;SDS011;44109;52.398;7.024;2024-01-30T11:20:20;13.70;;;9.13;;
58302;SDS011;44109;52.398;7.024;2024-01-30T11:22:52;18.50;;;10.65;;
58302;SDS011;44109;52.398;7.024;2024-01-30T11:25:23;13.85;;;9.63;;
58302;SDS011;44109;52.398;7.024;2024-01-30T11:27:53;16.98;;;10.20;;
58302;SDS011;44109;52.398;7.024;2024-01-30T11:30:23;11.85;;;8.20;;
58302;SDS011;44109;52.398;7.024;2024-01-30T11:32:58;18.25;;;11.40;;
58302;SDS011;44109;52.398;7.024;2024-01-30T11:35:32;15.23;;;9.98;;
58302;SDS011;44109;52.398;7.024;2024-01-30T11:38:01;17.60;;;10.95;;
58302;SDS011;44109;52.398;7.024;2024-01-30T11:40:31;14.40;;;9.65;;
58302;SDS011;44109;52.398;7.024;2024-01-30T11:43:02;15.48;;;10.30;;
58302;SDS011;44109;52.398;7.024;2024-01-30T11:45:31;14.25;;;9.77;;
58302;SDS011;44109;52.398;7.024;2024-01-30T11:48:01;11.73;;;9.18;;
58302;SDS011;44109;52.398;7.024;2024-01-30T11:50:29;17.58;;;11.00;;
58302;SDS011;44109;52.398;7.024;2024-01-30T11:52:57;13.02;;;9.65;;
58302;SDS011;44109;52.398;7.024;2024-01-30T11:55:26;12.02;;;9.20;;
58302;SDS011;44109;52.398;7.024;2024-01-30T11:57:57;16.10;;;10.15;;
58302;SDS011;44109;52.398;7.024;2024-01-30T12:00:26;12.70;;;9.95;;
58302;SDS011;44109;52.398;7.024;2024-01-30T12:02:55;17.08;;;11.35;;
58302;SDS011;44109;52.398;7.024;2024-01-30T12:05:23;12.50;;;8.70;;
58302;SDS011;44109;52.398;7.024;2024-01-30T12:07:52;14.20;;;8.88;;
58302;SDS011;44109;52.398;7.024;2024-01-30T12:10:20;14.43;;;10.07;;
58302;SDS011;44109;52.398;7.024;2024-01-30T12:12:49;13.57;;;9.27;;
58302;SDS011;44109;52.398;7.024;2024-01-30T12:15:21;15.05;;;10.65;;
58302;SDS011;44109;52.398;7.024;2024-01-30T12:17:51;14.38;;;10.10;;
58302;SDS011;44109;52.398;7.024;2024-01-30T12:20:18;12.75;;;10.30;;
58302;SDS011;44109;52.398;7.024;2024-01-30T12:22:49;13.05;;;8.80;;
58302;SDS011;44109;52.398;7.024;2024-01-30T12:25:18;11.95;;;9.32;;
58302;SDS011;44109;52.398;7.024;2024-01-30T12:27:49;12.00;;;9.05;;
58302;SDS011;44109;52.398;7.024;2024-01-30T12:30:17;12.20;;;9.25;;
58302;SDS011;44109;52.398;7.024;2024-01-30T12:32:47;11.57;;;8.20;;
58302;SDS011;44109;52.398;7.024;2024-01-30T12:35:19;13.35;;;10.68;;
58302;SDS011;44109;52.398;7.024;2024-01-30T12:37:47;13.35;;;10.32;;
58302;SDS011;44109;52.398;7.024;2024-01-30T12:40:17;12.93;;;9.93;;
58302;SDS011;44109;52.398;7.024;2024-01-30T12:42:46;14.05;;;11.35;;
58302;SDS011;44109;52.398;7.024;2024-01-30T12:45:15;13.70;;;9.75;;
58302;SDS011;44109;52.398;7.024;2024-01-30T12:47:46;15.18;;;9.00;;
58302;SDS011;44109;52.398;7.024;2024-01-30T12:50:15;13.93;;;8.95;;
58302;SDS011;44109;52.398;7.024;2024-01-30T12:52:43;14.70;;;9.50;;
58302;SDS011;44109;52.398;7.024;2024-01-30T12:55:11;14.55;;;8.70;;
58302;SDS011;44109;52.398;7.024;2024-01-30T12:57:38;15.88;;;10.45;;
58302;SDS011;44109;52.398;7.024;2024-01-30T13:00:06;17.20;;;11.50;;
58302;SDS011;44109;52.398;7.024;2024-01-30T13:02:35;16.70;;;11.70;;
58302;SDS011;44109;52.398;7.024;2024-01-30T13:05:03;13.35;;;11.07;;
58302;SDS011;44109;52.398;7.024;2024-01-30T13:07:33;14.85;;;10.95;;
58302;SDS011;44109;52.398;7.024;2024-01-30T13:10:02;13.05;;;9.75;;
58302;SDS011;44109;52.398;7.024;2024-01-30T13:12:30;13.52;;;11.40;;
58302;SDS011;44109;52.398;7.024;2024-01-30T13:14:59;15.63;;;10.75;;
58302;SDS011;44109;52.398;7.024;2024-01-30T13:17:27;14.00;;;9.63;;
58302;SDS011;44109;52.398;7.024;2024-01-30T13:19:55;15.10;;;10.10;;
58302;SDS011;44109;52.398;7.024;2024-01-30T13:22:23;14.05;;;10.85;;
58302;SDS011;44109;52.398;7.024;2024-01-30T13:24:52;14.07;;;10.32;;
58302;SDS011;44109;52.398;7.024;2024-01-30T13:27:20;12.70;;;9.52;;
58302;SDS011;44109;52.398;7.024;2024-01-30T13:29:47;16.42;;;10.57;;
58302;SDS011;44109;52.398;7.024;2024-01-30T13:32:15;12.85;;;9.75;;
58302;SDS011;44109;52.398;7.024;2024-01-30T13:34:42;13.80;;;9.70;;
58302;SDS011;44109;52.398;7.024;2024-01-30T13:37:10;13.80;;;10.98;;
58302;SDS011;44109;52.398;7.024;2024-01-30T13:39:38;13.15;;;9.57;;
58302;SDS011;44109;52.398;7.024;2024-01-30T13:42:07;16.20;;;10.63;;
58302;SDS011;44109;52.398;7.024;2024-01-30T13:44:35;14.10;;;7.90;;
58302;SDS011;44109;52.398;7.024;2024-01-30T13:47:03;11.48;;;8.02;;
58302;SDS011;44109;52.398;7.024;2024-01-30T13:49:30;16.42;;;9.55;;
58302;SDS011;44109;52.398;7.024;2024-01-30T13:51:58;16.00;;;9.88;;
58302;SDS011;44109;52.398;7.024;2024-01-30T13:54:29;12.82;;;9.85;;
58302;SDS011;44109;52.398;7.024;2024-01-30T13:56:57;11.45;;;8.77;;
58302;SDS011;44109;52.398;7.024;2024-01-30T13:59:26;14.20;;;9.73;;
58302;SDS011;44109;52.398;7.024;2024-01-30T14:01:54;13.13;;;8.65;;
58302;SDS011;44109;52.398;7.024;2024-01-30T14:04:21;13.77;;;8.45;;
58302;SDS011;44109;52.398;7.024;2024-01-30T14:06:49;14.73;;;8.43;;
58302;SDS011;44109;52.398;7.024;2024-01-30T14:09:19;11.75;;;7.15;;
58302;SDS011;44109;52.398;7.024;2024-01-30T14:11:47;13.32;;;7.18;;
58302;SDS011;44109;52.398;7.024;2024-01-30T14:14:15;11.52;;;7.40;;
58302;SDS011;44109;52.398;7.024;2024-01-30T14:16:44;9.25;;;6.85;;
58302;SDS011;44109;52.398;7.024;2024-01-30T14:19:11;10.40;;;6.70;;
58302;SDS011;44109;52.398;7.024;2024-01-30T14:21:39;11.07;;;6.40;;
58302;SDS011;44109;52.398;7.024;2024-01-30T14:24:06;9.73;;;5.20;;
58302;SDS011;44109;52.398;7.024;2024-01-30T14:26:34;10.48;;;4.95;;
58302;SDS011;44109;52.398;7.024;2024-01-30T14:29:02;8.63;;;4.40;;
58302;SDS011;44109;52.398;7.024;2024-01-30T14:31:30;9.10;;;4.13;;
58302;SDS011;44109;52.398;7.024;2024-01-30T14:33:59;11.40;;;4.30;;